createdAt,value
2022-09-27T00:01:09.665Z,96636.80
2022-09-27T00:03:40.783Z,96631.99
2022-09-27T00:06:08.765Z,96627.48
2022-09-27T00:08:37.707Z,96625.71
2022-09-27T00:11:10.315Z,96619.83
2022-09-27T00:13:38.362Z,96615.17
2022-09-27T00:16:06.708Z,96612.64
2022-09-27T00:18:35.278Z,96616.73
2022-09-27T00:21:08.377Z,96616.73
2022-09-27T00:23:37.100Z,96617.00
2022-09-27T00:26:06.857Z,96613.67
2022-09-27T00:28:35.651Z,96613.27
2022-09-27T00:31:04.041Z,96608.23
2022-09-27T00:33:32.161Z,96614.07
2022-09-27T00:36:07.236Z,96608.27
2022-09-27T00:38:35.258Z,96607.62
2022-09-27T00:41:03.391Z,96605.10
2022-09-27T00:43:45.722Z,96601.03
2022-09-27T00:46:19.518Z,96599.73
2022-09-27T00:48:50.234Z,96595.17
2022-09-27T00:51:18.343Z,96581.61
2022-09-27T00:53:51.775Z,96576.70
2022-09-27T00:56:24.790Z,96578.16
2022-09-27T00:58:59.652Z,96579.04
2022-09-27T01:01:30.535Z,96582.80
2022-09-27T01:04:09.301Z,96579.17
2022-09-27T01:06:38.484Z,96573.73
2022-09-27T01:09:11.426Z,96562.33
2022-09-27T01:11:54.694Z,96556.80
2022-09-27T01:14:59.718Z,96551.58
2022-09-27T01:17:52.507Z,96544.21
2022-09-27T01:20:20.364Z,96542.12
2022-09-27T01:22:51.681Z,96539.22
2022-09-27T01:25:37.864Z,96535.05
2022-09-27T01:28:20.943Z,96537.64
2022-09-27T01:31:01.953Z,96540.54
2022-09-27T01:33:47.670Z,96542.13
2022-09-27T01:36:20.914Z,96535.89
2022-09-27T01:39:07.047Z,96532.62
2022-09-27T01:42:01.004Z,96523.66
2022-09-27T01:44:39.567Z,96511.19
2022-09-27T01:47:23.132Z,96506.73
2022-09-27T01:50:07.781Z,96505.73
2022-09-27T01:52:43.071Z,96506.05
2022-09-27T01:55:15.056Z,96497.61
2022-09-27T01:58:17.075Z,96497.33
2022-09-27T02:00:51.010Z,96493.66
2022-09-27T02:03:23.690Z,96491.64
2022-09-27T02:06:31.345Z,96487.81
2022-09-27T02:09:26.669Z,96481.27
2022-09-27T02:12:10.243Z,96472.16
2022-09-27T02:14:44.721Z,96466.52
2022-09-27T02:17:33.623Z,96460.98
2022-09-27T02:20:14.749Z,96461.04
2022-09-27T02:22:56.121Z,96461.73
2022-09-27T02:25:31.130Z,96467.58
2022-09-27T02:28:22.555Z,96472.48
2022-09-27T02:30:51.149Z,96471.95
2022-09-27T02:33:31.773Z,96471.35
2022-09-27T02:36:00.308Z,96473.37
2022-09-27T02:38:29.134Z,96468.59
2022-09-27T02:40:57.564Z,96470.27
2022-09-27T02:43:30.467Z,96472.08
2022-09-27T02:46:14.817Z,96472.73
2022-09-27T02:49:04.771Z,96471.00
2022-09-27T02:52:07.099Z,96469.30
2022-09-27T02:54:50.939Z,96464.96
2022-09-27T02:58:31.201Z,96462.44
2022-09-27T03:02:01.945Z,96468.88
2022-09-27T03:04:42.989Z,96466.85
2022-09-27T03:07:12.773Z,96461.80
2022-09-27T03:09:44.873Z,96460.41
2022-09-27T03:12:13.040Z,96462.59
2022-09-27T03:14:41.404Z,96457.14
2022-09-27T03:17:29.277Z,96451.23
2022-09-27T03:20:20.434Z,96450.91
2022-09-27T03:22:53.752Z,96451.89
2022-09-27T03:25:22.526Z,96456.35
2022-09-27T03:27:51.400Z,96460.08
2022-09-27T03:30:20.346Z,96466.15
2022-09-27T03:32:49.096Z,96465.33
2022-09-27T03:35:20.226Z,96467.36
2022-09-27T03:37:48.286Z,96468.27
2022-09-27T03:40:16.429Z,96473.83
2022-09-27T03:42:49.487Z,96472.89
2022-09-27T03:45:18.538Z,96466.48
2022-09-27T03:47:47.214Z,96465.94
2022-09-27T03:50:15.958Z,96467.99
2022-09-27T03:52:44.379Z,96471.90
2022-09-27T03:55:12.921Z,96466.88
2022-09-27T03:57:46.672Z,96461.76
2022-09-27T04:00:18.109Z,96458.47
2022-09-27T04:02:46.373Z,96455.14
2022-09-27T04:05:37.857Z,96451.91
2022-09-27T04:08:12.353Z,96439.59
2022-09-27T04:10:43.149Z,96443.89
2022-09-27T04:13:11.420Z,96448.11
2022-09-27T04:15:52.073Z,96444.52
2022-09-27T04:18:40.785Z,96440.66
2022-09-27T04:21:27.604Z,96433.20
2022-09-27T04:23:56.541Z,96432.42
2022-09-27T04:26:25.943Z,96432.67
2022-09-27T04:29:00.647Z,96434.91
2022-09-27T04:31:29.966Z,96438.38
2022-09-27T04:34:18.277Z,96442.22
2022-09-27T04:36:46.367Z,96449.14
2022-09-27T04:39:17.492Z,96454.34
2022-09-27T04:41:46.795Z,96457.21
2022-09-27T04:44:14.978Z,96455.08
2022-09-27T04:46:45.943Z,96456.46
2022-09-27T04:49:14.242Z,96458.88
2022-09-27T04:51:42.385Z,96464.20
2022-09-27T04:54:10.995Z,96468.51
2022-09-27T04:56:46.132Z,96463.73
2022-09-27T04:59:14.107Z,96459.75
2022-09-27T05:01:42.504Z,96453.51
2022-09-27T05:04:33.728Z,96456.90
2022-09-27T05:07:01.779Z,96462.03
2022-09-27T05:09:36.113Z,96464.44
2022-09-27T05:12:07.913Z,96463.06
2022-09-27T05:15:09.693Z,96462.06
2022-09-27T05:18:11.317Z,96462.17
2022-09-27T05:20:59.398Z,96459.13
2022-09-27T05:23:39.608Z,96452.47
2022-09-27T05:26:08.088Z,96453.92
2022-09-27T05:28:36.508Z,96455.36
2022-09-27T05:31:05.816Z,96454.98
2022-09-27T05:33:34.482Z,96453.20
2022-09-27T05:36:21.475Z,96450.39
2022-09-27T05:38:49.891Z,96448.34
2022-09-27T05:41:18.310Z,96451.11
2022-09-27T05:43:47.710Z,96458.79
2022-09-27T05:46:16.947Z,96461.73
2022-09-27T05:48:45.066Z,96470.11
2022-09-27T05:51:15.007Z,96473.32
2022-09-27T05:53:49.080Z,96476.57
2022-09-27T05:56:25.133Z,96468.66
2022-09-27T05:59:28.919Z,96460.96
2022-09-27T06:02:15.548Z,96459.84
2022-09-27T06:05:04.307Z,96454.94
2022-09-27T06:07:35.413Z,96452.39
2022-09-27T06:10:06.754Z,96450.98
2022-09-27T06:12:38.588Z,96446.38
2022-09-27T06:15:14.806Z,96453.86
2022-09-27T06:17:46.965Z,96458.50
2022-09-27T06:20:19.271Z,96456.77
2022-09-27T06:22:50.445Z,96453.60
2022-09-27T06:25:21.275Z,96456.33
2022-09-27T06:28:13.316Z,96459.29
2022-09-27T06:30:48.336Z,96454.35
2022-09-27T06:33:28.365Z,96452.51
2022-09-27T06:36:02.461Z,96457.04
2022-09-27T06:38:31.227Z,96465.25
2022-09-27T06:41:10.873Z,96465.09
2022-09-27T06:44:06.110Z,96465.70
2022-09-27T06:47:10.625Z,96465.72
2022-09-27T06:49:58.901Z,96462.38
2022-09-27T06:52:27.965Z,96465.73
2022-09-27T06:54:56.430Z,96463.97
2022-09-27T06:57:42.833Z,96465.29
2022-09-27T07:00:24.931Z,96469.08
2022-09-27T07:03:23.971Z,96471.42
2022-09-27T07:06:07.939Z,96478.97
2022-09-27T07:08:53.801Z,96474.96
2022-09-27T07:11:23.865Z,96489.05
2022-09-27T07:13:54.027Z,96496.61
2022-09-27T07:16:22.301Z,96492.44
2022-09-27T07:18:53.916Z,96495.12
2022-09-27T07:21:22.058Z,96500.06
2022-09-27T07:23:50.750Z,96493.39
2022-09-27T07:26:19.133Z,96474.94
2022-09-27T07:28:49.632Z,96468.60
2022-09-27T07:31:18.907Z,96466.05
2022-09-27T07:33:47.286Z,96453.67
2022-09-27T07:36:16.380Z,96434.98
2022-09-27T07:38:48.596Z,96425.19
2022-09-27T07:41:22.087Z,96427.04
2022-09-27T07:43:50.296Z,96423.15
2022-09-27T07:46:20.430Z,96425.79
2022-09-27T07:49:07.106Z,96414.23
2022-09-27T07:51:56.542Z,96411.27
2022-09-27T07:54:50.556Z,96412.70
2022-09-27T07:57:37.379Z,96411.72
2022-09-27T08:00:09.298Z,96407.48
2022-09-27T08:02:42.477Z,96406.02
2022-09-27T08:05:12.987Z,96402.68
2022-09-27T08:07:41.729Z,96409.25
2022-09-27T08:10:10.281Z,96402.59
2022-09-27T08:12:39.886Z,96397.58
2022-09-27T08:15:08.681Z,96397.46
2022-09-27T08:17:54.986Z,96394.92
2022-09-27T08:21:13.321Z,96390.03
2022-09-27T08:24:17.783Z,96384.23
2022-09-27T08:27:11.507Z,96370.08
2022-09-27T08:29:52.484Z,96363.58
2022-09-27T08:32:23.287Z,96365.44
2022-09-27T08:34:52.557Z,96365.65
2022-09-27T08:37:23.545Z,96362.92
2022-09-27T08:39:52.114Z,96361.20
2022-09-27T08:42:21.246Z,96366.23
2022-09-27T08:45:04.326Z,96366.31
2022-09-27T08:47:58.049Z,96369.42
2022-09-27T08:50:47.455Z,96372.61
2022-09-27T08:53:35.713Z,96377.73
2022-09-27T08:56:09.466Z,96382.45
2022-09-27T08:58:52.277Z,96385.91
2022-09-27T09:01:28.866Z,96387.66
2022-09-27T09:04:33.172Z,96371.43
2022-09-27T09:07:17.140Z,96370.14
2022-09-27T09:10:42.783Z,96362.23
2022-09-27T09:13:17.886Z,96355.41
2022-09-27T09:16:05.931Z,96355.30
2022-09-27T09:19:05.873Z,96350.35
2022-09-27T09:22:10.788Z,96346.02
2022-09-27T09:24:48.543Z,96340.39
2022-09-27T09:27:36.038Z,96332.39
2022-09-27T09:30:25.582Z,96321.08
2022-09-27T09:33:00.373Z,96319.91
2022-09-27T09:35:38.147Z,96319.89
2022-09-27T09:38:19.025Z,96316.48
2022-09-27T09:41:06.900Z,96309.49
2022-09-27T09:43:45.480Z,96300.86
2022-09-27T09:46:27.810Z,96292.52
2022-09-27T09:49:09.416Z,96292.25
2022-09-27T09:51:49.835Z,96290.02
2022-09-27T09:54:37.355Z,96291.46
2022-09-27T09:57:18.177Z,96289.14
2022-09-27T10:00:02.635Z,96288.39
2022-09-27T10:02:43.209Z,96277.02
2022-09-27T10:05:17.089Z,96267.38
2022-09-27T10:07:46.617Z,96260.16
2022-09-27T10:10:20.159Z,96256.17
2022-09-27T10:12:57.378Z,96261.05
2022-09-27T10:15:38.025Z,96252.27
2022-09-27T10:18:18.110Z,96247.55
2022-09-27T10:20:52.853Z,96238.77
2022-09-27T10:24:18.066Z,96239.98
2022-09-27T10:27:04.183Z,96241.48
2022-09-27T10:29:39.255Z,96241.84
2022-09-27T10:32:31.016Z,96238.25
2022-09-27T10:35:37.830Z,96228.40
2022-09-27T10:38:35.482Z,96222.57
2022-09-27T10:41:25.036Z,96232.02
2022-09-27T10:43:58.707Z,96237.70
2022-09-27T10:46:33.590Z,96239.46
2022-09-27T10:49:30.161Z,96235.38
2022-09-27T10:52:08.277Z,96237.88
2022-09-27T10:54:41.468Z,96231.16
2022-09-27T10:57:14.558Z,96222.92
2022-09-27T10:59:50.639Z,96222.33
2022-09-27T11:02:58.172Z,96221.05
2022-09-27T11:05:43.566Z,96220.20
2022-09-27T11:08:30.171Z,96220.39
2022-09-27T11:11:21.399Z,96224.15
2022-09-27T11:14:25.310Z,96217.61
2022-09-27T11:17:11.453Z,96209.85
2022-09-27T11:20:02.017Z,96210.94
2022-09-27T11:22:37.553Z,96204.96
2022-09-27T11:25:07.089Z,96204.20
2022-09-27T11:27:55.091Z,96209.02
2022-09-27T11:30:32.579Z,96202.95
2022-09-27T11:33:43.201Z,96203.67
2022-09-27T11:36:49.510Z,96202.94
2022-09-27T11:39:45.558Z,96198.10
2022-09-27T11:42:52.030Z,96196.35
2022-09-27T11:46:03.443Z,96198.40
2022-09-27T11:48:54.138Z,96193.85
2022-09-27T11:51:34.407Z,96192.55
2022-09-27T11:54:40.019Z,96191.20
2022-09-27T11:57:44.185Z,96193.55
2022-09-27T12:00:12.617Z,96195.55
2022-09-27T12:03:25.328Z,96189.72
2022-09-27T12:06:19.479Z,96191.67
2022-09-27T12:09:16.747Z,96191.93
2022-09-27T12:12:12.370Z,96186.99
2022-09-27T12:14:56.503Z,96184.05
2022-09-27T12:17:34.471Z,96175.52
2022-09-27T12:20:15.998Z,96169.48
2022-09-27T12:22:59.065Z,96172.55
2022-09-27T12:25:42.093Z,96175.84
2022-09-27T12:28:43.935Z,96187.86
2022-09-27T12:31:29.053Z,96186.14
2022-09-27T12:34:23.513Z,96178.67
2022-09-27T12:37:25.546Z,96169.42
2022-09-27T12:40:15.607Z,96171.05
2022-09-27T12:42:53.619Z,96170.88
2022-09-27T12:45:53.575Z,96170.92
2022-09-27T12:48:52.123Z,96164.29
2022-09-27T12:51:23.131Z,96157.11
2022-09-27T12:54:01.136Z,96149.83
2022-09-27T12:56:40.361Z,96145.59
2022-09-27T12:59:33.353Z,96136.45
2022-09-27T13:02:29.574Z,96126.73
2022-09-27T13:05:11.181Z,96122.49
2022-09-27T13:08:25.956Z,96116.21
2022-09-27T13:11:30.728Z,96109.45
2022-09-27T13:14:05.332Z,96107.52
2022-09-27T13:16:48.253Z,96098.89
2022-09-27T13:19:35.743Z,96094.70
2022-09-27T13:22:28.252Z,96094.59
2022-09-27T13:25:48.784Z,96096.27
2022-09-27T13:28:39.254Z,96094.84
2022-09-27T13:31:16.343Z,96103.54
2022-09-27T13:33:49.723Z,96100.85
2022-09-27T13:36:39.476Z,96094.99
2022-09-27T13:39:22.129Z,96081.78
2022-09-27T13:42:42.627Z,96075.63
2022-09-27T13:45:28.554Z,96071.83
2022-09-27T13:47:59.289Z,96071.18
2022-09-27T13:50:52.380Z,96066.90
2022-09-27T13:53:39.860Z,96063.70
2022-09-27T13:56:37.090Z,96059.80
2022-09-27T13:59:16.785Z,96054.18
2022-09-27T14:02:21.642Z,96047.65
2022-09-27T14:04:52.580Z,96041.90
2022-09-27T14:07:36.147Z,96036.17
2022-09-27T14:10:13.251Z,96030.35
2022-09-27T14:12:45.404Z,96033.54
2022-09-27T14:15:27.527Z,96033.56
2022-09-27T14:17:59.382Z,96028.79
2022-09-27T14:20:41.552Z,96034.21
2022-09-27T14:23:22.296Z,96028.30
2022-09-27T14:25:56.776Z,96032.90
2022-09-27T14:28:31.143Z,96033.86
2022-09-27T14:31:25.152Z,96034.55
2022-09-27T14:34:13.925Z,96042.58
2022-09-27T14:37:07.105Z,96051.74
2022-09-27T14:39:44.036Z,96052.77
2022-09-27T14:42:36.450Z,96057.38
2022-09-27T14:45:23.147Z,96059.35
2022-09-27T14:47:52.444Z,96062.35
2022-09-27T14:50:31.809Z,96060.87
2022-09-27T14:53:02.473Z,96060.56
2022-09-27T14:55:35.972Z,96054.22
2022-09-27T14:58:04.991Z,96052.65
2022-09-27T15:00:38.822Z,96054.75
2022-09-27T15:03:10.503Z,96050.31
2022-09-27T15:05:43.344Z,96049.95
2022-09-27T15:08:15.404Z,96047.25
2022-09-27T15:10:44.941Z,96053.13
2022-09-27T15:13:19.335Z,96052.83
2022-09-27T15:16:01.789Z,96053.57
2022-09-27T15:18:37.837Z,96053.69
2022-09-27T15:21:07.548Z,96055.48
2022-09-27T15:23:40.400Z,96061.65
2022-09-27T15:26:21.691Z,96057.45
2022-09-27T15:28:54.880Z,96051.39
2022-09-27T15:31:37.220Z,96052.67
2022-09-27T15:34:18.899Z,96054.27
2022-09-27T15:37:03.834Z,96057.27
2022-09-27T15:39:36.016Z,96056.63
2022-09-27T15:42:17.370Z,96060.73
2022-09-27T15:44:57.949Z,96059.41
2022-09-27T15:47:34.630Z,96058.10
2022-09-27T15:50:15.241Z,96057.39
2022-09-27T15:52:51.041Z,96061.51
2022-09-27T15:55:25.389Z,96069.61
2022-09-27T15:58:02.245Z,96075.75
2022-09-27T16:00:30.678Z,96078.50
2022-09-27T16:03:00.418Z,96081.16
2022-09-27T16:05:30.128Z,96079.41
2022-09-27T16:08:00.142Z,96076.69
2022-09-27T16:10:38.373Z,96077.93
2022-09-27T16:13:08.627Z,96079.30
2022-09-27T16:15:37.939Z,96080.32
2022-09-27T16:18:06.367Z,96081.69
2022-09-27T16:20:34.953Z,96079.85
2022-09-27T16:23:03.776Z,96086.36
2022-09-27T16:25:40.544Z,96083.87
2022-09-27T16:28:12.361Z,96089.95
2022-09-27T16:30:41.236Z,96092.96
2022-09-27T16:33:09.222Z,96091.09
2022-09-27T16:35:41.696Z,96094.21
2022-09-27T16:38:10.660Z,96092.92
2022-09-27T16:40:42.153Z,96096.95
2022-09-27T16:43:10.491Z,96094.09
2022-09-27T16:45:38.560Z,96090.80
2022-09-27T16:48:07.095Z,96091.86
2022-09-27T16:50:53.708Z,96095.24
2022-09-27T16:53:21.835Z,96090.93
2022-09-27T16:55:50.036Z,96086.80
2022-09-27T16:58:21.417Z,96078.20
2022-09-27T17:00:49.571Z,96075.58
2022-09-27T17:03:20.540Z,96079.05
2022-09-27T17:05:48.611Z,96077.77
2022-09-27T17:08:17.348Z,96074.73
2022-09-27T17:10:45.745Z,96075.83
2022-09-27T17:13:14.280Z,96078.31
2022-09-27T17:15:42.285Z,96074.94
2022-09-27T17:18:11.125Z,96081.97
2022-09-27T17:20:39.283Z,96083.51
2022-09-27T17:23:07.335Z,96094.61
2022-09-27T17:25:35.529Z,96094.29
2022-09-27T17:28:06.177Z,96093.42
2022-09-27T17:30:35.397Z,96092.46
2022-09-27T17:33:05.669Z,96092.05
2022-09-27T17:35:36.847Z,96093.00
2022-09-27T17:38:05.295Z,96092.52
2022-09-27T17:40:36.478Z,96092.31
2022-09-27T17:43:06.846Z,96093.11
2022-09-27T17:45:34.785Z,96086.38
2022-09-27T17:48:32.159Z,96085.91
2022-09-27T17:51:00.376Z,96092.27
2022-09-27T17:53:32.007Z,96086.81
2022-09-27T17:56:03.034Z,96089.83
2022-09-27T17:58:31.278Z,96091.85
2022-09-27T18:01:04.593Z,96089.73
2022-09-27T18:03:35.822Z,96091.47
2022-09-27T18:06:08.132Z,96096.48
2022-09-27T18:08:36.770Z,96096.81
2022-09-27T18:11:11.972Z,96093.48
2022-09-27T18:13:42.017Z,96096.46
2022-09-27T18:16:13.289Z,96099.94
2022-09-27T18:18:43.293Z,96095.81
2022-09-27T18:21:15.460Z,96096.46
2022-09-27T18:23:44.675Z,96096.99
2022-09-27T18:26:12.976Z,96100.90
2022-09-27T18:28:42.563Z,96102.72
2022-09-27T18:31:13.646Z,96102.91
2022-09-27T18:33:44.724Z,96097.79
2022-09-27T18:36:14.556Z,96090.61
2022-09-27T18:38:43.124Z,96099.27
2022-09-27T18:41:17.154Z,96097.45
2022-09-27T18:43:47.340Z,96098.41
2022-09-27T18:46:34.981Z,96087.00
2022-09-27T18:49:07.304Z,96087.48
2022-09-27T18:51:38.954Z,96090.56
2022-09-27T18:54:11.777Z,96087.79
2022-09-27T18:56:41.190Z,96079.20
2022-09-27T18:59:10.447Z,96075.88
2022-09-27T19:01:42.332Z,96071.55
2022-09-27T19:04:13.042Z,96068.18
2022-09-27T19:06:42.105Z,96066.12
2022-09-27T19:09:11.714Z,96059.41
2022-09-27T19:11:40.404Z,96055.95
2022-09-27T19:14:19.119Z,96042.74
2022-09-27T19:16:48.359Z,96048.69
2022-09-27T19:19:18.137Z,96052.97
2022-09-27T19:21:47.681Z,96054.38
2022-09-27T19:24:18.229Z,96056.18
2022-09-27T19:26:46.485Z,96055.64
2022-09-27T19:29:14.953Z,96061.87
2022-09-27T19:31:44.522Z,96068.23
2022-09-27T19:34:12.929Z,96073.95
2022-09-27T19:36:41.170Z,96079.73
2022-09-27T19:39:09.282Z,96085.67
2022-09-27T19:41:38.288Z,96100.65
2022-09-27T19:44:07.470Z,96108.35
2022-09-27T19:46:36.148Z,96108.08
2022-09-27T19:49:04.465Z,96109.50
2022-09-27T19:51:33.588Z,96106.00
2022-09-27T19:54:01.839Z,96114.15
2022-09-27T19:56:30.080Z,96113.98
2022-09-27T19:58:58.027Z,96114.89
2022-09-27T20:01:28.898Z,96116.31
2022-09-27T20:04:00.050Z,96118.84
2022-09-27T20:06:28.741Z,96122.27
2022-09-27T20:08:56.761Z,96122.17
2022-09-27T20:11:27.613Z,96131.77
2022-09-27T20:13:55.770Z,96134.86
2022-09-27T20:16:25.514Z,96138.08
2022-09-27T20:18:56.200Z,96152.40
2022-09-27T20:21:27.116Z,96159.06
2022-09-27T20:23:58.977Z,96162.09
2022-09-27T20:26:28.689Z,96162.77
2022-09-27T20:28:59.197Z,96163.73
2022-09-27T20:31:37.223Z,96166.82
2022-09-27T20:34:13.183Z,96165.12
2022-09-27T20:36:45.323Z,96168.73
2022-09-27T20:39:16.802Z,96173.26
2022-09-27T20:41:46.525Z,96178.63
2022-09-27T20:44:19.933Z,96184.11
2022-09-27T20:46:50.432Z,96189.69
2022-09-27T20:49:20.040Z,96192.08
2022-09-27T20:51:49.330Z,96198.40
2022-09-27T20:54:18.490Z,96198.83
2022-09-27T20:56:49.202Z,96204.69
2022-09-27T20:59:23.288Z,96204.63
2022-09-27T21:01:52.603Z,96207.92
2022-09-27T21:04:22.508Z,96207.41
2022-09-27T21:06:51.719Z,96208.73
2022-09-27T21:09:20.573Z,96205.63
2022-09-27T21:11:52.049Z,96200.95
2022-09-27T21:14:20.473Z,96200.83
2022-09-27T21:16:49.260Z,96197.91
2022-09-27T21:19:17.466Z,96200.94
2022-09-27T21:21:45.982Z,96200.09
2022-09-27T21:24:14.326Z,96211.58
2022-09-27T21:26:42.372Z,96207.16
2022-09-27T21:29:13.663Z,96196.41
2022-09-27T21:31:42.095Z,96194.71
2022-09-27T21:34:11.344Z,96200.69
2022-09-27T21:36:40.919Z,96209.03
2022-09-27T21:39:10.339Z,96214.83
2022-09-27T21:41:39.930Z,96217.64
2022-09-27T21:44:10.218Z,96213.70
2022-09-27T21:46:42.104Z,96204.38
2022-09-27T21:49:11.284Z,96196.98
2022-09-27T21:51:41.951Z,96196.25
2022-09-27T21:54:16.864Z,96191.12
2022-09-27T21:56:45.068Z,96186.72
2022-09-27T21:59:15.461Z,96186.88
2022-09-27T22:01:45.979Z,96192.56
2022-09-27T22:04:16.093Z,96196.84
2022-09-27T22:06:44.587Z,96194.17
2022-09-27T22:09:18.841Z,96186.55
2022-09-27T22:11:48.310Z,96182.89
2022-09-27T22:14:18.187Z,96183.25
2022-09-27T22:16:47.642Z,96183.58
2022-09-27T22:19:16.892Z,96190.92
2022-09-27T22:21:46.241Z,96193.30
2022-09-27T22:24:17.242Z,96197.03
2022-09-27T22:26:48.274Z,96194.16
2022-09-27T22:29:16.813Z,96191.55
2022-09-27T22:31:44.986Z,96196.60
2022-09-27T22:34:18.354Z,96202.93
2022-09-27T22:36:46.974Z,96211.44
2022-09-27T22:39:15.087Z,96207.35
2022-09-27T22:41:43.608Z,96204.16
2022-09-27T22:44:11.724Z,96203.41
2022-09-27T22:46:39.970Z,96202.08
2022-09-27T22:49:10.287Z,96208.45
2022-09-27T22:51:38.561Z,96205.35
2022-09-27T22:54:06.749Z,96209.86
2022-09-27T22:56:34.814Z,96216.60
2022-09-27T22:59:03.184Z,96219.83
2022-09-27T23:01:31.871Z,96216.55
2022-09-27T23:03:59.970Z,96217.66
2022-09-27T23:06:28.106Z,96223.94
2022-09-27T23:08:58.375Z,96222.83
2022-09-27T23:11:26.721Z,96219.42
2022-09-27T23:13:54.677Z,96217.98
2022-09-27T23:16:24.896Z,96217.48
2022-09-27T23:18:56.852Z,96217.60
2022-09-27T23:21:27.278Z,96214.06
2022-09-27T23:23:59.916Z,96213.55
2022-09-27T23:26:29.437Z,96213.45
2022-09-27T23:29:02.658Z,96214.34
2022-09-27T23:31:32.619Z,96224.53
2022-09-27T23:34:04.413Z,96241.11
2022-09-27T23:36:33.399Z,96241.96
2022-09-27T23:39:01.699Z,96239.88
2022-09-27T23:41:29.759Z,96237.42
2022-09-27T23:43:58.224Z,96238.54
2022-09-27T23:46:26.592Z,96244.13
2022-09-27T23:48:54.881Z,96245.48
2022-09-27T23:51:22.879Z,96239.65
2022-09-27T23:53:51.244Z,96237.64
2022-09-27T23:56:19.152Z,96238.45
2022-09-27T23:58:47.393Z,96237.10
